Terminal Aerodrome Forecast
Issued by NWS

Home | Current Version | Previous Version | Graphics & Text | Print | Product List | Glossary Off
Versions: 1 2 3 4 5 6 7 8 9 10 11 12 13 14 15

000
FTUS43 KDDC 210500
TAFHYS
TAF
KHYS 210534Z 2106/2206 VRB06KT P6SM SCT040 BKN060 OVC110
     FM211400 01014G22KT P6SM SCT060
     FM212100 04011KT P6SM SKC=

USA.gov is the U.S. government's official web portal to all federal, state and local government web resources and services.